Detalii statie FIRST FARMS FAUREI [00001992]

Toti senzorii

Date Temperatura solului [C]Precipitatii [mm]Voltaj baterie [mV]Leaf Wetness [Min]HC Air temperature [C]HC Relative humidity [%]Punctul de roua [C]
medieminmaxsumaultimatimpmedieminmaxmediemediemin
2019-02-21 00:00:00 4.3 4.3 4.5 0 6826 5.68 5.37 5.88 0 0 0
2019-02-21 01:00:00 4.2 4.2 4.4 0 6816 4.68 4.01 5.46 0 0 0
2019-02-21 02:00:00 4.1 4 4.2 0 6806 3.4 2.4 3.94 0 0 0
2019-02-21 03:00:00 3.9 3.7 4.1 0 6786 1.82 0.96 2.68 0 0 0
2019-02-21 04:00:00 3.7 3.5 3.8 0 6786 2.03 0.89 2.48 0 0 0
2019-02-21 05:00:00 3.4 3.4 3.6 0 6776 0.2 -0.25 0.86 0 0 0
2019-02-21 06:00:00 3.2 3.2 3.5 0 6756 -0.23 -0.54 0.25 0 0 0
2019-02-21 07:00:00 3 2.8 3.3 0 6766 -0.48 -0.98 0.06 0 0 0
2019-02-21 08:00:00 2.8 2.7 3 0 6884 0.09 -0.8 1.38 0 0 0
2019-02-21 09:00:00 2.7 2.6 2.8 0 7216 4.54 1.58 6.93 0 0 0
2019-02-21 10:00:00 2.8 2.7 3 0 7206 9.22 7.49 10.37 0 0 0
2019-02-21 11:00:00 3.3 3 3.7 0 7216 11.05 10.58 11.54 0 0 0
2019-02-21 12:00:00 4 3.8 4.4 0 7206 11.88 11.49 12.19 0 0 0
2019-02-21 13:00:00 4.6 4.4 4.9 0 7206 12.4 11.99 13.19 0 0 0
2019-02-21 14:00:00 5 4.9 5.2 0 7196 12.89 12.45 13.38 0 0 0
2019-02-21 15:00:00 5.3 5.1 5.5 0 7196 12.2 11.81 12.68 0 0 0
2019-02-21 16:00:00 5.4 5.3 5.6 0 6952 11.32 10.88 11.73 0 0 0
2019-02-21 17:00:00 5.4 5.4 5.6 0 6904 10.62 10.35 10.86 0 0 0
2019-02-21 18:00:00 5.4 5.3 5.6 0 6864 9.36 8.48 10.26 0 0 0
2019-02-21 19:00:00 5.2 5 5.4 0 6864 7.33 6.32 8.34 0 0 0
2019-02-21 20:00:00 5 4.9 5.2 0 6834 6.01 5.39 6.57 0 0 0
2019-02-21 21:00:00 4.8 4.7 5 0 6834 4.01 3.28 5.21 0 0 0
2019-02-21 22:00:00 4.4 4.3 4.6 0 6826 1.99 0.94 3.17 0 0 0
2019-02-21 23:00:00 4.2 4 4.4 0 6796 1.87 0.83 2.81 0 0 0
2019-02-22 00:00:00 3.9 3.7 4.3 0 6796 1.21 0.87 1.51 0 0 0
2019-02-22 01:00:00 3.6 3.5 3.8 0 6776 0.84 0.31 1.26 0 0 0
2019-02-22 02:00:00 3.4 3.2 3.6 0 6776 0.03 -0.18 0.55 0 0 0
2019-02-22 03:00:00 3.2 3 3.4 0 6756 -0.56 -1.73 0.24 0 0 0
2019-02-22 04:00:00 3 2.7 3.2 0 6756 -1.53 -2 -1.03 0 0 0
2019-02-22 05:00:00 2.7 2.6 3 0 6756 -2.28 -2.59 -1.76 0 0 0
2019-02-22 06:00:00 2.5 2.4 2.7 0 6748 -1.07 -1.96 -0.58 0 0 0
2019-02-22 07:00:00 2.4 2.2 2.6 0 6756 -0.39 -0.48 -0.2 0 0 0
2019-02-22 08:00:00 2.3 2.3 2.4 0 6776 0.22 -0.11 0.85 0 0 0
2019-02-22 09:00:00 2.2 2.1 2.3 0 6884 1.85 0.99 2.39 0 0 0
2019-02-22 10:00:00 2.3 2.2 2.5 0 6922 2.83 2.34 3.22 0 0 0
2019-02-22 11:00:00 2.4 2.4 2.5 0 7030 3.74 3.32 3.95 0 0 0
2019-02-22 12:00:00 2.5 2.5 2.8 0 7166 4.03 3.59 4.61 0 0 0
2019-02-22 13:00:00 2.8 2.7 2.9 0.2 7206 4.5 4.38 4.62 0 0 0
2019-02-22 14:00:00 2.9 2.8 3.1 0 7206 4.92 4.68 5.08 0 0 0
2019-02-22 15:00:00 3.2 3 3.4 1 7088 4.54 3.15 4.91 0 0 0
2019-02-22 16:00:00 3.3 3.2 3.5 0.6 7128 0.88 0.54 1.3 0 0 0
2019-02-22 17:00:00 3.2 3.2 3.4 0 7000 -0.12 -0.4 0.34 0 0 0
2019-02-22 18:00:00 2.9 2.6 3.2 0 6904 -0.82 -1.2 -0.43 0 0 0
2019-02-22 19:00:00 2.7 2.6 2.8 0 6884 -1.44 -2.01 -1.2 0 0 0
2019-02-22 20:00:00 2.4 2.3 2.7 0.8 6834 -2.07 -2.22 -1.95 0 0 0
2019-02-22 21:00:00 2.2 2.1 2.4 0 6806 -2.05 -2.24 -1.9 0 0 0
2019-02-22 22:00:00 2.1 2 2.2 0 6796 -2.4 -2.75 -2.19 0 0 0